sensor_id;sensor_type;location;lat;lon;timestamp;P1;durP1;ratioP1;P2;durP2;ratioP2
68479;SDS011;55469;48.934;12.050;2023-04-24T00:00:15;1.23;;;1.10;;
68479;SDS011;55469;48.934;12.050;2023-04-24T00:02:42;1.23;;;1.13;;
68479;SDS011;55469;48.934;12.050;2023-04-24T00:05:13;1.23;;;1.15;;
68479;SDS011;55469;48.934;12.050;2023-04-24T00:07:40;0.85;;;0.85;;
68479;SDS011;55469;48.934;12.050;2023-04-24T00:10:07;1.00;;;1.00;;
68479;SDS011;55469;48.934;12.050;2023-04-24T00:12:33;0.90;;;0.90;;
68479;SDS011;55469;48.934;12.050;2023-04-24T00:14:59;1.30;;;1.20;;
68479;SDS011;55469;48.934;12.050;2023-04-24T00:17:26;1.10;;;1.10;;
68479;SDS011;55469;48.934;12.050;2023-04-24T00:19:51;1.20;;;1.10;;
68479;SDS011;55469;48.934;12.050;2023-04-24T00:22:23;1.20;;;1.10;;
68479;SDS011;55469;48.934;12.050;2023-04-24T00:24:50;1.15;;;1.10;;
68479;SDS011;55469;48.934;12.050;2023-04-24T00:27:16;1.30;;;1.20;;
68479;SDS011;55469;48.934;12.050;2023-04-24T00:29:41;1.33;;;1.23;;
68479;SDS011;55469;48.934;12.050;2023-04-24T00:32:07;1.00;;;1.00;;
68479;SDS011;55469;48.934;12.050;2023-04-24T00:34:33;1.20;;;1.10;;
68479;SDS011;55469;48.934;12.050;2023-04-24T00:36:58;1.35;;;1.10;;
68479;SDS011;55469;48.934;12.050;2023-04-24T00:39:24;1.33;;;1.20;;
68479;SDS011;55469;48.934;12.050;2023-04-24T00:41:50;1.67;;;1.20;;
68479;SDS011;55469;48.934;12.050;2023-04-24T00:44:16;1.00;;;1.00;;
68479;SDS011;55469;48.934;12.050;2023-04-24T00:46:42;1.52;;;1.17;;
68479;SDS011;55469;48.934;12.050;2023-04-24T00:49:08;1.20;;;1.10;;
68479;SDS011;55469;48.934;12.050;2023-04-24T00:51:33;1.08;;;0.98;;
68479;SDS011;55469;48.934;12.050;2023-04-24T00:54:00;1.10;;;1.00;;
68479;SDS011;55469;48.934;12.050;2023-04-24T00:56:26;1.13;;;1.05;;
68479;SDS011;55469;48.934;12.050;2023-04-24T00:58:52;1.45;;;1.20;;
68479;SDS011;55469;48.934;12.050;2023-04-24T01:01:19;1.20;;;1.10;;
68479;SDS011;55469;48.934;12.050;2023-04-24T01:03:46;1.27;;;1.13;;
68479;SDS011;55469;48.934;12.050;2023-04-24T01:06:15;1.20;;;1.20;;
68479;SDS011;55469;48.934;12.050;2023-04-24T01:08:40;1.30;;;1.20;;
68479;SDS011;55469;48.934;12.050;2023-04-24T01:11:07;1.40;;;1.30;;
68479;SDS011;55469;48.934;12.050;2023-04-24T01:13:33;1.25;;;1.13;;
68479;SDS011;55469;48.934;12.050;2023-04-24T01:16:00;1.27;;;1.20;;
68479;SDS011;55469;48.934;12.050;2023-04-24T01:18:26;1.30;;;1.20;;
68479;SDS011;55469;48.934;12.050;2023-04-24T01:20:59;1.65;;;1.30;;
68479;SDS011;55469;48.934;12.050;2023-04-24T01:23:29;1.23;;;1.13;;
68479;SDS011;55469;48.934;12.050;2023-04-24T01:25:54;1.20;;;1.10;;
68479;SDS011;55469;48.934;12.050;2023-04-24T01:28:21;1.42;;;1.30;;
68479;SDS011;55469;48.934;12.050;2023-04-24T01:30:47;1.30;;;1.20;;
68479;SDS011;55469;48.934;12.050;2023-04-24T01:33:13;1.40;;;1.30;;
68479;SDS011;55469;48.934;12.050;2023-04-24T01:35:39;1.98;;;1.30;;
68479;SDS011;55469;48.934;12.050;2023-04-24T01:38:05;1.30;;;1.20;;
68479;SDS011;55469;48.934;12.050;2023-04-24T01:40:31;1.58;;;1.48;;
68479;SDS011;55469;48.934;12.050;2023-04-24T01:42:57;1.45;;;1.30;;
68479;SDS011;55469;48.934;12.050;2023-04-24T01:45:24;1.40;;;1.30;;
68479;SDS011;55469;48.934;12.050;2023-04-24T01:47:49;1.40;;;1.30;;
68479;SDS011;55469;48.934;12.050;2023-04-24T01:50:16;1.50;;;1.40;;
68479;SDS011;55469;48.934;12.050;2023-04-24T01:52:42;1.40;;;1.30;;
68479;SDS011;55469;48.934;12.050;2023-04-24T01:55:08;1.23;;;1.13;;
68479;SDS011;55469;48.934;12.050;2023-04-24T01:57:35;1.10;;;1.10;;
68479;SDS011;55469;48.934;12.050;2023-04-24T02:00:01;1.25;;;1.15;;
68479;SDS011;55469;48.934;12.050;2023-04-24T02:02:29;1.48;;;1.38;;
68479;SDS011;55469;48.934;12.050;2023-04-24T02:04:58;1.30;;;1.20;;
68479;SDS011;55469;48.934;12.050;2023-04-24T02:07:24;1.40;;;1.30;;
68479;SDS011;55469;48.934;12.050;2023-04-24T02:09:50;1.38;;;1.27;;
68479;SDS011;55469;48.934;12.050;2023-04-24T02:12:16;1.25;;;1.20;;
68479;SDS011;55469;48.934;12.050;2023-04-24T02:14:43;1.20;;;1.17;;
68479;SDS011;55469;48.934;12.050;2023-04-24T02:17:09;1.38;;;1.27;;
68479;SDS011;55469;48.934;12.050;2023-04-24T02:19:37;1.40;;;1.30;;
68479;SDS011;55469;48.934;12.050;2023-04-24T02:22:02;1.38;;;1.27;;
68479;SDS011;55469;48.934;12.050;2023-04-24T02:24:28;1.13;;;1.10;;
68479;SDS011;55469;48.934;12.050;2023-04-24T02:26:54;1.50;;;1.40;;
68479;SDS011;55469;48.934;12.050;2023-04-24T02:29:20;1.35;;;1.25;;
68479;SDS011;55469;48.934;12.050;2023-04-24T02:31:46;2.78;;;1.20;;
68479;SDS011;55469;48.934;12.050;2023-04-24T02:34:12;1.30;;;1.20;;
68479;SDS011;55469;48.934;12.050;2023-04-24T02:36:37;1.27;;;1.17;;
68479;SDS011;55469;48.934;12.050;2023-04-24T02:39:03;1.40;;;1.30;;
68479;SDS011;55469;48.934;12.050;2023-04-24T02:41:29;1.30;;;1.20;;
68479;SDS011;55469;48.934;12.050;2023-04-24T02:43:57;1.33;;;1.23;;
68479;SDS011;55469;48.934;12.050;2023-04-24T02:46:23;1.42;;;1.20;;
68479;SDS011;55469;48.934;12.050;2023-04-24T02:48:50;1.45;;;1.35;;
68479;SDS011;55469;48.934;12.050;2023-04-24T02:51:15;1.33;;;1.23;;
68479;SDS011;55469;48.934;12.050;2023-04-24T02:53:41;1.30;;;1.30;;
68479;SDS011;55469;48.934;12.050;2023-04-24T02:56:07;1.15;;;1.10;;
68479;SDS011;55469;48.934;12.050;2023-04-24T02:58:33;1.30;;;1.20;;
68479;SDS011;55469;48.934;12.050;2023-04-24T03:00:58;1.10;;;1.10;;
68479;SDS011;55469;48.934;12.050;2023-04-24T03:03:25;1.40;;;1.30;;
68479;SDS011;55469;48.934;12.050;2023-04-24T03:05:51;1.58;;;1.20;;
68479;SDS011;55469;48.934;12.050;2023-04-24T03:08:17;1.10;;;1.10;;
68479;SDS011;55469;48.934;12.050;2023-04-24T03:10:43;1.30;;;1.20;;
68479;SDS011;55469;48.934;12.050;2023-04-24T03:13:08;1.42;;;1.10;;
68479;SDS011;55469;48.934;12.050;2023-04-24T03:15:34;1.20;;;1.10;;
68479;SDS011;55469;48.934;12.050;2023-04-24T03:18:00;1.30;;;1.20;;
68479;SDS011;55469;48.934;12.050;2023-04-24T03:20:26;1.17;;;1.13;;
68479;SDS011;55469;48.934;12.050;2023-04-24T03:22:52;1.60;;;1.25;;
68479;SDS011;55469;48.934;12.050;2023-04-24T03:25:17;1.02;;;1.02;;
68479;SDS011;55469;48.934;12.050;2023-04-24T03:27:43;1.20;;;1.10;;
68479;SDS011;55469;48.934;12.050;2023-04-24T03:30:09;1.30;;;1.20;;
68479;SDS011;55469;48.934;12.050;2023-04-24T03:32:35;1.13;;;1.10;;
68479;SDS011;55469;48.934;12.050;2023-04-24T03:35:01;1.77;;;1.25;;
68479;SDS011;55469;48.934;12.050;2023-04-24T03:37:28;1.10;;;1.00;;
68479;SDS011;55469;48.934;12.050;2023-04-24T03:39:53;1.27;;;1.20;;
68479;SDS011;55469;48.934;12.050;2023-04-24T03:42:19;0.98;;;0.98;;
68479;SDS011;55469;48.934;12.050;2023-04-24T03:44:45;1.40;;;1.30;;
68479;SDS011;55469;48.934;12.050;2023-04-24T03:47:11;1.30;;;1.20;;
68479;SDS011;55469;48.934;12.050;2023-04-24T03:49:36;1.00;;;1.00;;
68479;SDS011;55469;48.934;12.050;2023-04-24T03:52:02;1.02;;;1.02;;
68479;SDS011;55469;48.934;12.050;2023-04-24T03:54:28;1.30;;;1.20;;
68479;SDS011;55469;48.934;12.050;2023-04-24T03:56:54;1.10;;;1.08;;
68479;SDS011;55469;48.934;12.050;2023-04-24T03:59:19;1.08;;;1.00;;
68479;SDS011;55469;48.934;12.050;2023-04-24T04:01:45;1.23;;;1.13;;
68479;SDS011;55469;48.934;12.050;2023-04-24T04:04:11;1.20;;;1.10;;
68479;SDS011;55469;48.934;12.050;2023-04-24T04:06:37;2.08;;;1.08;;
68479;SDS011;55469;48.934;12.050;2023-04-24T04:09:02;1.00;;;1.00;;
68479;SDS011;55469;48.934;12.050;2023-04-24T04:11:29;1.08;;;1.08;;
68479;SDS011;55469;48.934;12.050;2023-04-24T04:13:55;1.30;;;1.20;;
68479;SDS011;55469;48.934;12.050;2023-04-24T04:16:21;0.95;;;0.88;;
68479;SDS011;55469;48.934;12.050;2023-04-24T04:18:47;1.00;;;1.00;;
68479;SDS011;55469;48.934;12.050;2023-04-24T04:21:13;1.10;;;1.08;;
68479;SDS011;55469;48.934;12.050;2023-04-24T04:23:39;1.38;;;1.10;;
68479;SDS011;55469;48.934;12.050;2023-04-24T04:26:05;1.30;;;1.20;;
68479;SDS011;55469;48.934;12.050;2023-04-24T04:28:31;0.90;;;0.90;;
68479;SDS011;55469;48.934;12.050;2023-04-24T04:30:57;1.17;;;1.08;;
68479;SDS011;55469;48.934;12.050;2023-04-24T04:33:23;1.00;;;1.00;;
68479;SDS011;55469;48.934;12.050;2023-04-24T04:35:50;1.25;;;1.00;;
68479;SDS011;55469;48.934;12.050;2023-04-24T04:38:21;1.35;;;0.90;;
68479;SDS011;55469;48.934;12.050;2023-04-24T04:40:47;1.10;;;1.00;;
68479;SDS011;55469;48.934;12.050;2023-04-24T04:43:13;1.20;;;1.10;;
68479;SDS011;55469;48.934;12.050;2023-04-24T04:45:40;1.17;;;1.08;;
68479;SDS011;55469;48.934;12.050;2023-04-24T04:48:07;1.02;;;1.02;;
68479;SDS011;55469;48.934;12.050;2023-04-24T04:50:34;1.08;;;1.05;;
68479;SDS011;55469;48.934;12.050;2023-04-24T04:53:00;0.95;;;0.93;;
68479;SDS011;55469;48.934;12.050;2023-04-24T04:55:26;1.02;;;1.02;;
68479;SDS011;55469;48.934;12.050;2023-04-24T04:57:52;1.00;;;1.00;;
68479;SDS011;55469;48.934;12.050;2023-04-24T05:00:18;1.10;;;1.05;;
68479;SDS011;55469;48.934;12.050;2023-04-24T05:02:44;0.98;;;0.98;;
68479;SDS011;55469;48.934;12.050;2023-04-24T05:05:10;1.00;;;1.00;;
68479;SDS011;55469;48.934;12.050;2023-04-24T05:07:36;0.80;;;0.80;;
68479;SDS011;55469;48.934;12.050;2023-04-24T05:10:02;1.02;;;1.00;;
68479;SDS011;55469;48.934;12.050;2023-04-24T05:12:28;0.93;;;0.93;;
68479;SDS011;55469;48.934;12.050;2023-04-24T05:14:53;1.38;;;1.00;;
68479;SDS011;55469;48.934;12.050;2023-04-24T05:17:19;0.95;;;0.95;;
68479;SDS011;55469;48.934;12.050;2023-04-24T05:19:45;0.82;;;0.82;;
68479;SDS011;55469;48.934;12.050;2023-04-24T05:22:11;1.00;;;0.88;;
68479;SDS011;55469;48.934;12.050;2023-04-24T05:24:37;1.02;;;0.98;;
68479;SDS011;55469;48.934;12.050;2023-04-24T05:27:03;0.90;;;0.90;;
68479;SDS011;55469;48.934;12.050;2023-04-24T05:29:32;0.90;;;0.90;;
68479;SDS011;55469;48.934;12.050;2023-04-24T05:31:58;1.40;;;1.00;;
68479;SDS011;55469;48.934;12.050;2023-04-24T05:34:25;0.90;;;0.90;;
68479;SDS011;55469;48.934;12.050;2023-04-24T05:36:51;1.20;;;1.10;;
68479;SDS011;55469;48.934;12.050;2023-04-24T05:39:17;0.90;;;0.90;;
68479;SDS011;55469;48.934;12.050;2023-04-24T05:41:44;1.05;;;0.90;;
68479;SDS011;55469;48.934;12.050;2023-04-24T05:44:10;0.90;;;0.90;;
68479;SDS011;55469;48.934;12.050;2023-04-24T05:46:36;0.93;;;0.93;;
68479;SDS011;55469;48.934;12.050;2023-04-24T05:49:02;0.88;;;0.88;;
68479;SDS011;55469;48.934;12.050;2023-04-24T05:51:28;0.98;;;0.90;;
68479;SDS011;55469;48.934;12.050;2023-04-24T05:53:53;0.85;;;0.85;;
68479;SDS011;55469;48.934;12.050;2023-04-24T05:56:19;1.00;;;0.90;;
68479;SDS011;55469;48.934;12.050;2023-04-24T05:58:45;0.82;;;0.82;;
68479;SDS011;55469;48.934;12.050;2023-04-24T06:01:11;1.27;;;0.73;;
68479;SDS011;55469;48.934;12.050;2023-04-24T06:03:39;1.00;;;0.90;;
68479;SDS011;55469;48.934;12.050;2023-04-24T06:06:06;1.10;;;1.00;;
68479;SDS011;55469;48.934;12.050;2023-04-24T06:08:33;1.25;;;1.00;;
68479;SDS011;55469;48.934;12.050;2023-04-24T06:11:00;1.00;;;0.90;;
68479;SDS011;55469;48.934;12.050;2023-04-24T06:13:25;1.08;;;1.00;;
68479;SDS011;55469;48.934;12.050;2023-04-24T06:15:52;1.35;;;1.02;;
68479;SDS011;55469;48.934;12.050;2023-04-24T06:18:18;0.90;;;0.90;;
68479;SDS011;55469;48.934;12.050;2023-04-24T06:20:44;1.27;;;1.00;;
68479;SDS011;55469;48.934;12.050;2023-04-24T06:23:12;0.90;;;0.90;;
68479;SDS011;55469;48.934;12.050;2023-04-24T06:25:37;0.98;;;0.90;;
68479;SDS011;55469;48.934;12.050;2023-04-24T06:28:03;0.90;;;0.90;;
68479;SDS011;55469;48.934;12.050;2023-04-24T06:30:29;0.85;;;0.85;;
68479;SDS011;55469;48.934;12.050;2023-04-24T06:32:55;1.10;;;0.90;;
68479;SDS011;55469;48.934;12.050;2023-04-24T06:35:21;0.90;;;0.90;;
68479;SDS011;55469;48.934;12.050;2023-04-24T06:37:47;0.70;;;0.70;;
68479;SDS011;55469;48.934;12.050;2023-04-24T06:40:12;0.90;;;0.90;;
68479;SDS011;55469;48.934;12.050;2023-04-24T06:42:38;0.93;;;0.93;;
68479;SDS011;55469;48.934;12.050;2023-04-24T06:45:04;0.77;;;0.77;;
68479;SDS011;55469;48.934;12.050;2023-04-24T06:47:30;0.80;;;0.80;;
68479;SDS011;55469;48.934;12.050;2023-04-24T06:49:56;0.80;;;0.80;;
68479;SDS011;55469;48.934;12.050;2023-04-24T06:52:25;0.63;;;0.63;;
68479;SDS011;55469;48.934;12.050;2023-04-24T06:54:51;0.93;;;0.93;;
68479;SDS011;55469;48.934;12.050;2023-04-24T06:57:17;0.88;;;0.88;;
68479;SDS011;55469;48.934;12.050;2023-04-24T06:59:43;0.80;;;0.80;;
68479;SDS011;55469;48.934;12.050;2023-04-24T07:02:09;1.08;;;0.82;;
68479;SDS011;55469;48.934;12.050;2023-04-24T07:04:34;0.80;;;0.80;;
68479;SDS011;55469;48.934;12.050;2023-04-24T07:07:00;0.85;;;0.85;;
68479;SDS011;55469;48.934;12.050;2023-04-24T07:09:28;1.00;;;0.90;;
68479;SDS011;55469;48.934;12.050;2023-04-24T07:11:53;1.15;;;0.80;;
68479;SDS011;55469;48.934;12.050;2023-04-24T07:14:21;0.85;;;0.85;;
68479;SDS011;55469;48.934;12.050;2023-04-24T07:16:47;0.70;;;0.70;;
68479;SDS011;55469;48.934;12.050;2023-04-24T07:19:13;1.00;;;0.90;;
68479;SDS011;55469;48.934;12.050;2023-04-24T07:21:39;0.80;;;0.80;;
68479;SDS011;55469;48.934;12.050;2023-04-24T07:24:05;0.82;;;0.82;;
68479;SDS011;55469;48.934;12.050;2023-04-24T07:26:35;0.80;;;0.80;;
68479;SDS011;55469;48.934;12.050;2023-04-24T07:29:02;1.65;;;1.10;;
68479;SDS011;55469;48.934;12.050;2023-04-24T07:31:27;0.90;;;0.90;;
68479;SDS011;55469;48.934;12.050;2023-04-24T07:33:53;0.90;;;0.90;;
68479;SDS011;55469;48.934;12.050;2023-04-24T07:36:19;1.52;;;1.00;;
68479;SDS011;55469;48.934;12.050;2023-04-24T07:38:45;0.90;;;0.90;;
68479;SDS011;55469;48.934;12.050;2023-04-24T07:41:12;0.90;;;0.90;;
68479;SDS011;55469;48.934;12.050;2023-04-24T07:43:38;0.80;;;0.80;;
68479;SDS011;55469;48.934;12.050;2023-04-24T07:46:04;0.90;;;0.90;;
68479;SDS011;55469;48.934;12.050;2023-04-24T07:48:31;0.90;;;0.90;;
68479;SDS011;55469;48.934;12.050;2023-04-24T07:50:57;1.00;;;0.90;;
68479;SDS011;55469;48.934;12.050;2023-04-24T07:53:23;0.80;;;0.80;;
68479;SDS011;55469;48.934;12.050;2023-04-24T07:55:48;0.85;;;0.82;;
68479;SDS011;55469;48.934;12.050;2023-04-24T07:58:14;1.20;;;1.08;;
68479;SDS011;55469;48.934;12.050;2023-04-24T08:00:40;1.08;;;1.08;;
68479;SDS011;55469;48.934;12.050;2023-04-24T08:03:06;1.48;;;1.20;;
68479;SDS011;55469;48.934;12.050;2023-04-24T08:05:31;0.90;;;0.90;;
68479;SDS011;55469;48.934;12.050;2023-04-24T08:07:58;1.65;;;1.10;;
68479;SDS011;55469;48.934;12.050;2023-04-24T08:10:24;1.00;;;1.00;;
68479;SDS011;55469;48.934;12.050;2023-04-24T08:12:50;1.27;;;1.10;;
68479;SDS011;55469;48.934;12.050;2023-04-24T08:15:16;1.10;;;1.00;;
68479;SDS011;55469;48.934;12.050;2023-04-24T08:17:42;1.05;;;1.05;;
68479;SDS011;55469;48.934;12.050;2023-04-24T08:20:08;0.95;;;0.95;;
68479;SDS011;55469;48.934;12.050;2023-04-24T08:22:38;1.02;;;1.00;;
68479;SDS011;55469;48.934;12.050;2023-04-24T08:25:05;0.95;;;0.95;;
68479;SDS011;55469;48.934;12.050;2023-04-24T08:27:31;1.00;;;1.00;;
68479;SDS011;55469;48.934;12.050;2023-04-24T08:29:57;0.85;;;0.85;;
68479;SDS011;55469;48.934;12.050;2023-04-24T08:32:26;1.13;;;1.02;;
68479;SDS011;55469;48.934;12.050;2023-04-24T08:34:53;1.10;;;1.10;;
68479;SDS011;55469;48.934;12.050;2023-04-24T08:37:23;1.00;;;1.00;;
68479;SDS011;55469;48.934;12.050;2023-04-24T08:39:51;1.17;;;1.08;;
68479;SDS011;55469;48.934;12.050;2023-04-24T08:42:17;1.20;;;1.00;;
68479;SDS011;55469;48.934;12.050;2023-04-24T08:44:44;1.08;;;1.08;;
68479;SDS011;55469;48.934;12.050;2023-04-24T08:47:11;0.90;;;0.90;;
68479;SDS011;55469;48.934;12.050;2023-04-24T08:49:38;1.25;;;0.85;;
68479;SDS011;55469;48.934;12.050;2023-04-24T08:52:06;0.82;;;0.82;;
68479;SDS011;55469;48.934;12.050;2023-04-24T08:54:36;1.08;;;0.98;;
68479;SDS011;55469;48.934;12.050;2023-04-24T08:57:03;0.75;;;0.75;;
68479;SDS011;55469;48.934;12.050;2023-04-24T08:59:29;0.93;;;0.93;;
68479;SDS011;55469;48.934;12.050;2023-04-24T09:01:56;1.05;;;0.90;;
68479;SDS011;55469;48.934;12.050;2023-04-24T09:04:23;1.10;;;1.00;;
68479;SDS011;55469;48.934;12.050;2023-04-24T09:06:50;0.88;;;0.80;;
68479;SDS011;55469;48.934;12.050;2023-04-24T09:09:20;0.90;;;0.90;;
68479;SDS011;55469;48.934;12.050;2023-04-24T09:11:48;1.70;;;0.80;;
68479;SDS011;55469;48.934;12.050;2023-04-24T09:14:15;0.82;;;0.82;;
68479;SDS011;55469;48.934;12.050;2023-04-24T09:16:42;0.95;;;0.95;;
68479;SDS011;55469;48.934;12.050;2023-04-24T09:19:08;1.00;;;0.90;;
68479;SDS011;55469;48.934;12.050;2023-04-24T09:21:34;0.80;;;0.80;;
68479;SDS011;55469;48.934;12.050;2023-04-24T09:24:01;0.80;;;0.80;;
68479;SDS011;55469;48.934;12.050;2023-04-24T09:26:34;0.90;;;0.90;;
68479;SDS011;55469;48.934;12.050;2023-04-24T09:29:02;1.05;;;0.80;;
68479;SDS011;55469;48.934;12.050;2023-04-24T09:31:29;0.80;;;0.80;;
68479;SDS011;55469;48.934;12.050;2023-04-24T09:36:36;0.88;;;0.88;;
68479;SDS011;55469;48.934;12.050;2023-04-24T09:39:06;0.90;;;0.90;;
68479;SDS011;55469;48.934;12.050;2023-04-24T09:41:35;0.90;;;0.90;;
68479;SDS011;55469;48.934;12.050;2023-04-24T09:44:21;0.95;;;0.90;;
68479;SDS011;55469;48.934;12.050;2023-04-24T09:46:53;0.90;;;0.90;;
68479;SDS011;55469;48.934;12.050;2023-04-24T09:49:25;0.90;;;0.90;;
68479;SDS011;55469;48.934;12.050;2023-04-24T09:52:10;0.85;;;0.85;;
68479;SDS011;55469;48.934;12.050;2023-04-24T09:54:36;1.10;;;0.93;;
68479;SDS011;55469;48.934;12.050;2023-04-24T09:57:04;0.90;;;0.90;;
68479;SDS011;55469;48.934;12.050;2023-04-24T09:59:32;1.10;;;1.00;;
68479;SDS011;55469;48.934;12.050;2023-04-24T10:01:59;0.90;;;0.90;;
68479;SDS011;55469;48.934;12.050;2023-04-24T10:04:26;2.10;;;1.00;;
68479;SDS011;55469;48.934;12.050;2023-04-24T10:06:55;1.08;;;0.98;;
68479;SDS011;55469;48.934;12.050;2023-04-24T10:09:22;0.80;;;0.80;;
68479;SDS011;55469;48.934;12.050;2023-04-24T10:11:52;1.92;;;1.00;;
68479;SDS011;55469;48.934;12.050;2023-04-24T10:14:20;0.90;;;0.90;;
68479;SDS011;55469;48.934;12.050;2023-04-24T10:16:52;0.80;;;0.80;;
68479;SDS011;55469;48.934;12.050;2023-04-24T10:19:21;1.75;;;1.00;;
68479;SDS011;55469;48.934;12.050;2023-04-24T10:21:51;0.80;;;0.80;;
68479;SDS011;55469;48.934;12.050;2023-04-24T10:24:17;0.93;;;0.80;;
68479;SDS011;55469;48.934;12.050;2023-04-24T10:26:46;0.70;;;0.70;;
68479;SDS011;55469;48.934;12.050;2023-04-24T10:29:16;0.80;;;0.80;;
68479;SDS011;55469;48.934;12.050;2023-04-24T10:31:43;1.33;;;0.90;;
68479;SDS011;55469;48.934;12.050;2023-04-24T10:34:12;0.70;;;0.70;;
68479;SDS011;55469;48.934;12.050;2023-04-24T10:36:53;0.80;;;0.80;;
68479;SDS011;55469;48.934;12.050;2023-04-24T10:39:21;0.98;;;0.70;;
68479;SDS011;55469;48.934;12.050;2023-04-24T10:41:48;1.25;;;0.80;;
68479;SDS011;55469;48.934;12.050;2023-04-24T10:44:15;1.98;;;0.80;;
68479;SDS011;55469;48.934;12.050;2023-04-24T10:46:44;0.80;;;0.80;;
68479;SDS011;55469;48.934;12.050;2023-04-24T10:49:14;0.68;;;0.68;;
68479;SDS011;55469;48.934;12.050;2023-04-24T10:51:47;0.70;;;0.70;;
68479;SDS011;55469;48.934;12.050;2023-04-24T10:54:21;0.90;;;0.77;;
68479;SDS011;55469;48.934;12.050;2023-04-24T10:59:45;0.77;;;0.75;;
68479;SDS011;55469;48.934;12.050;2023-04-24T11:02:16;0.70;;;0.70;;
68479;SDS011;55469;48.934;12.050;2023-04-24T11:04:42;0.70;;;0.70;;
68479;SDS011;55469;48.934;12.050;2023-04-24T11:07:10;1.25;;;0.82;;
68479;SDS011;55469;48.934;12.050;2023-04-24T11:09:36;0.90;;;0.90;;
68479;SDS011;55469;48.934;12.050;2023-04-24T11:12:09;0.90;;;0.90;;
68479;SDS011;55469;48.934;12.050;2023-04-24T11:20:02;1.02;;;0.95;;
68479;SDS011;55469;48.934;12.050;2023-04-24T11:22:34;0.93;;;0.93;;
68479;SDS011;55469;48.934;12.050;2023-04-24T11:25:03;1.00;;;0.90;;
68479;SDS011;55469;48.934;12.050;2023-04-24T11:27:41;1.13;;;0.90;;
68479;SDS011;55469;48.934;12.050;2023-04-24T11:30:09;0.60;;;0.60;;
68479;SDS011;55469;48.934;12.050;2023-04-24T11:32:40;0.90;;;0.90;;
68479;SDS011;55469;48.934;12.050;2023-04-24T11:37:46;1.50;;;0.70;;
68479;SDS011;55469;48.934;12.050;2023-04-24T11:40:15;0.80;;;0.80;;
68479;SDS011;55469;48.934;12.050;2023-04-24T11:42:44;1.38;;;0.93;;
68479;SDS011;55469;48.934;12.050;2023-04-24T11:45:12;1.17;;;0.80;;
68479;SDS011;55469;48.934;12.050;2023-04-24T11:47:40;0.80;;;0.80;;
68479;SDS011;55469;48.934;12.050;2023-04-24T11:50:09;0.80;;;0.80;;
68479;SDS011;55469;48.934;12.050;2023-04-24T11:52:40;0.70;;;0.70;;
68479;SDS011;55469;48.934;12.050;2023-04-24T11:57:41;0.70;;;0.70;;
68479;SDS011;55469;48.934;12.050;2023-04-24T12:00:14;0.75;;;0.75;;
68479;SDS011;55469;48.934;12.050;2023-04-24T12:02:46;0.80;;;0.80;;
68479;SDS011;55469;48.934;12.050;2023-04-24T12:05:26;0.80;;;0.80;;
68479;SDS011;55469;48.934;12.050;2023-04-24T12:07:52;0.95;;;0.80;;
68479;SDS011;55469;48.934;12.050;2023-04-24T12:10:22;1.00;;;0.90;;
68479;SDS011;55469;48.934;12.050;2023-04-24T12:12:50;0.50;;;0.50;;
68479;SDS011;55469;48.934;12.050;2023-04-24T12:15:17;0.90;;;0.90;;
68479;SDS011;55469;48.934;12.050;2023-04-24T12:17:47;0.65;;;0.65;;
68479;SDS011;55469;48.934;12.050;2023-04-24T12:20:16;0.73;;;0.73;;
68479;SDS011;55469;48.934;12.050;2023-04-24T12:22:51;0.80;;;0.80;;
68479;SDS011;55469;48.934;12.050;2023-04-24T12:25:20;0.93;;;0.73;;
68479;SDS011;55469;48.934;12.050;2023-04-24T12:27:52;0.80;;;0.80;;
68479;SDS011;55469;48.934;12.050;2023-04-24T12:30:20;0.90;;;0.90;;
68479;SDS011;55469;48.934;12.050;2023-04-24T12:32:47;0.82;;;0.82;;
68479;SDS011;55469;48.934;12.050;2023-04-24T12:35:21;0.80;;;0.80;;
68479;SDS011;55469;48.934;12.050;2023-04-24T12:37:49;0.82;;;0.80;;
68479;SDS011;55469;48.934;12.050;2023-04-24T12:40:17;0.73;;;0.73;;
68479;SDS011;55469;48.934;12.050;2023-04-24T12:42:47;1.25;;;0.90;;
68479;SDS011;55469;48.934;12.050;2023-04-24T12:45:14;1.42;;;0.80;;
68479;SDS011;55469;48.934;12.050;2023-04-24T12:47:42;0.90;;;0.90;;
68479;SDS011;55469;48.934;12.050;2023-04-24T12:50:13;0.95;;;0.90;;
68479;SDS011;55469;48.934;12.050;2023-04-24T12:52:40;1.77;;;0.80;;
68479;SDS011;55469;48.934;12.050;2023-04-24T12:55:07;1.20;;;0.82;;
68479;SDS011;55469;48.934;12.050;2023-04-24T12:57:34;0.70;;;0.70;;
68479;SDS011;55469;48.934;12.050;2023-04-24T13:00:01;0.95;;;0.90;;
68479;SDS011;55469;48.934;12.050;2023-04-24T13:02:29;0.90;;;0.90;;
68479;SDS011;55469;48.934;12.050;2023-04-24T13:04:56;1.08;;;0.70;;
68479;SDS011;55469;48.934;12.050;2023-04-24T13:07:26;0.80;;;0.80;;
68479;SDS011;55469;48.934;12.050;2023-04-24T13:09:52;1.00;;;0.88;;
68479;SDS011;55469;48.934;12.050;2023-04-24T13:12:20;0.80;;;0.80;;
68479;SDS011;55469;48.934;12.050;2023-04-24T13:14:46;0.75;;;0.73;;
68479;SDS011;55469;48.934;12.050;2023-04-24T13:17:12;0.85;;;0.85;;
68479;SDS011;55469;48.934;12.050;2023-04-24T13:19:41;1.20;;;0.90;;
68479;SDS011;55469;48.934;12.050;2023-04-24T13:22:09;0.88;;;0.88;;
68479;SDS011;55469;48.934;12.050;2023-04-24T13:24:36;1.30;;;0.90;;
68479;SDS011;55469;48.934;12.050;2023-04-24T13:27:03;0.80;;;0.80;;
68479;SDS011;55469;48.934;12.050;2023-04-24T13:29:29;0.80;;;0.80;;
68479;SDS011;55469;48.934;12.050;2023-04-24T13:31:54;1.00;;;1.00;;
68479;SDS011;55469;48.934;12.050;2023-04-24T13:34:21;0.80;;;0.80;;
68479;SDS011;55469;48.934;12.050;2023-04-24T13:36:52;0.90;;;0.90;;
68479;SDS011;55469;48.934;12.050;2023-04-24T13:39:20;0.85;;;0.85;;
68479;SDS011;55469;48.934;12.050;2023-04-24T13:41:46;0.85;;;0.85;;
68479;SDS011;55469;48.934;12.050;2023-04-24T13:44:13;1.17;;;0.85;;
68479;SDS011;55469;48.934;12.050;2023-04-24T13:46:40;0.77;;;0.77;;
68479;SDS011;55469;48.934;12.050;2023-04-24T13:49:08;0.80;;;0.80;;
68479;SDS011;55469;48.934;12.050;2023-04-24T13:51:34;0.70;;;0.70;;
68479;SDS011;55469;48.934;12.050;2023-04-24T13:54:00;0.88;;;0.88;;
68479;SDS011;55469;48.934;12.050;2023-04-24T13:56:26;0.75;;;0.75;;
68479;SDS011;55469;48.934;12.050;2023-04-24T13:58:52;1.42;;;0.88;;
68479;SDS011;55469;48.934;12.050;2023-04-24T14:01:19;0.80;;;0.80;;
68479;SDS011;55469;48.934;12.050;2023-04-24T14:03:49;1.73;;;0.80;;
68479;SDS011;55469;48.934;12.050;2023-04-24T14:06:18;2.67;;;0.80;;
68479;SDS011;55469;48.934;12.050;2023-04-24T14:08:45;1.50;;;0.90;;
68479;SDS011;55469;48.934;12.050;2023-04-24T14:11:11;0.88;;;0.88;;
68479;SDS011;55469;48.934;12.050;2023-04-24T14:13:37;1.20;;;0.75;;
68479;SDS011;55469;48.934;12.050;2023-04-24T14:16:04;0.77;;;0.77;;
68479;SDS011;55469;48.934;12.050;2023-04-24T14:18:31;1.73;;;0.93;;
68479;SDS011;55469;48.934;12.050;2023-04-24T14:20:57;0.88;;;0.88;;
68479;SDS011;55469;48.934;12.050;2023-04-24T14:23:22;1.08;;;0.80;;
68479;SDS011;55469;48.934;12.050;2023-04-24T14:25:49;0.70;;;0.70;;
68479;SDS011;55469;48.934;12.050;2023-04-24T14:28:17;0.80;;;0.80;;
68479;SDS011;55469;48.934;12.050;2023-04-24T14:30:44;1.10;;;0.70;;
68479;SDS011;55469;48.934;12.050;2023-04-24T14:33:10;0.75;;;0.75;;
68479;SDS011;55469;48.934;12.050;2023-04-24T14:35:36;1.00;;;0.90;;
68479;SDS011;55469;48.934;12.050;2023-04-24T14:38:02;1.02;;;0.80;;
68479;SDS011;55469;48.934;12.050;2023-04-24T14:40:28;0.80;;;0.80;;
68479;SDS011;55469;48.934;12.050;2023-04-24T14:42:54;1.00;;;0.80;;
68479;SDS011;55469;48.934;12.050;2023-04-24T14:45:20;1.48;;;1.00;;
68479;SDS011;55469;48.934;12.050;2023-04-24T14:47:46;0.90;;;0.90;;